sensor_id;sensor_type;location;lat;lon;timestamp;temperature;humidity
29725;DHT22;16636;48.394;15.468;2023-03-21T00:00:46;9.20;99.90
29725;DHT22;16636;48.394;15.468;2023-03-21T00:03:13;9.20;99.90
29725;DHT22;16636;48.394;15.468;2023-03-21T00:05:39;9.20;99.90
29725;DHT22;16636;48.394;15.468;2023-03-21T00:08:06;9.20;99.90
29725;DHT22;16636;48.394;15.468;2023-03-21T00:10:31;9.20;99.90
29725;DHT22;16636;48.394;15.468;2023-03-21T00:12:57;9.20;99.90
29725;DHT22;16636;48.394;15.468;2023-03-21T00:15:24;9.20;99.90
29725;DHT22;16636;48.394;15.468;2023-03-21T00:17:55;9.30;99.90
29725;DHT22;16636;48.394;15.468;2023-03-21T00:20:31;9.30;99.90
29725;DHT22;16636;48.394;15.468;2023-03-21T00:22:59;9.30;99.90
29725;DHT22;16636;48.394;15.468;2023-03-21T00:25:26;9.30;99.90
29725;DHT22;16636;48.394;15.468;2023-03-21T00:27:52;9.20;99.90
29725;DHT22;16636;48.394;15.468;2023-03-21T00:30:19;9.30;99.90
29725;DHT22;16636;48.394;15.468;2023-03-21T00:32:48;9.30;99.90
29725;DHT22;16636;48.394;15.468;2023-03-21T00:35:14;9.30;99.90
29725;DHT22;16636;48.394;15.468;2023-03-21T00:37:40;9.30;99.90
29725;DHT22;16636;48.394;15.468;2023-03-21T00:40:09;9.30;99.90
29725;DHT22;16636;48.394;15.468;2023-03-21T00:42:35;9.30;99.90
29725;DHT22;16636;48.394;15.468;2023-03-21T00:45:03;9.30;99.90
29725;DHT22;16636;48.394;15.468;2023-03-21T00:47:31;9.30;99.90
29725;DHT22;16636;48.394;15.468;2023-03-21T00:49:57;9.30;99.90
29725;DHT22;16636;48.394;15.468;2023-03-21T00:52:22;9.30;99.90
29725;DHT22;16636;48.394;15.468;2023-03-21T00:54:50;9.30;99.90
29725;DHT22;16636;48.394;15.468;2023-03-21T00:57:16;9.30;99.90
29725;DHT22;16636;48.394;15.468;2023-03-21T00:59:43;9.30;99.90
29725;DHT22;16636;48.394;15.468;2023-03-21T01:02:09;9.30;99.90
29725;DHT22;16636;48.394;15.468;2023-03-21T01:04:39;9.30;99.90
29725;DHT22;16636;48.394;15.468;2023-03-21T01:07:05;9.40;99.90
29725;DHT22;16636;48.394;15.468;2023-03-21T01:09:31;9.40;99.90
29725;DHT22;16636;48.394;15.468;2023-03-21T01:11:57;9.30;99.90
29725;DHT22;16636;48.394;15.468;2023-03-21T01:14:23;9.30;99.90
29725;DHT22;16636;48.394;15.468;2023-03-21T01:16:50;9.30;99.90
29725;DHT22;16636;48.394;15.468;2023-03-21T01:19:17;9.30;99.90
29725;DHT22;16636;48.394;15.468;2023-03-21T01:21:43;9.20;99.90
29725;DHT22;16636;48.394;15.468;2023-03-21T01:24:09;9.30;99.90
29725;DHT22;16636;48.394;15.468;2023-03-21T01:26:36;9.30;99.90
29725;DHT22;16636;48.394;15.468;2023-03-21T01:29:03;9.30;99.90
29725;DHT22;16636;48.394;15.468;2023-03-21T01:31:29;9.30;99.90
29725;DHT22;16636;48.394;15.468;2023-03-21T01:33:55;9.30;99.90
29725;DHT22;16636;48.394;15.468;2023-03-21T01:36:21;9.30;99.90
29725;DHT22;16636;48.394;15.468;2023-03-21T01:38:49;9.30;99.90
29725;DHT22;16636;48.394;15.468;2023-03-21T01:41:32;9.30;99.90
29725;DHT22;16636;48.394;15.468;2023-03-21T01:43:59;9.30;99.90
29725;DHT22;16636;48.394;15.468;2023-03-21T01:49:34;9.30;99.90
29725;DHT22;16636;48.394;15.468;2023-03-21T01:52:15;9.30;99.90
29725;DHT22;16636;48.394;15.468;2023-03-21T01:54:43;9.30;99.90
29725;DHT22;16636;48.394;15.468;2023-03-21T01:57:18;9.30;99.90
29725;DHT22;16636;48.394;15.468;2023-03-21T01:59:50;9.20;99.90
29725;DHT22;16636;48.394;15.468;2023-03-21T02:02:25;9.20;99.90
29725;DHT22;16636;48.394;15.468;2023-03-21T02:05:16;9.20;99.90
29725;DHT22;16636;48.394;15.468;2023-03-21T02:07:45;9.20;99.90
29725;DHT22;16636;48.394;15.468;2023-03-21T02:10:16;9.20;99.90
29725;DHT22;16636;48.394;15.468;2023-03-21T02:12:46;9.10;99.90
29725;DHT22;16636;48.394;15.468;2023-03-21T02:15:12;9.10;99.90
29725;DHT22;16636;48.394;15.468;2023-03-21T02:17:55;9.10;99.90
29725;DHT22;16636;48.394;15.468;2023-03-21T02:29:01;9.00;99.90
29725;DHT22;16636;48.394;15.468;2023-03-21T02:31:41;9.00;99.90
29725;DHT22;16636;48.394;15.468;2023-03-21T02:42:15;8.80;99.90
29725;DHT22;16636;48.394;15.468;2023-03-21T02:47:47;8.80;99.90
29725;DHT22;16636;48.394;15.468;2023-03-21T02:52:55;8.80;99.90
29725;DHT22;16636;48.394;15.468;2023-03-21T02:55:26;8.80;99.90
29725;DHT22;16636;48.394;15.468;2023-03-21T02:57:57;8.80;99.90
29725;DHT22;16636;48.394;15.468;2023-03-21T03:00:28;8.70;99.90
29725;DHT22;16636;48.394;15.468;2023-03-21T03:02:57;8.80;99.90
29725;DHT22;16636;48.394;15.468;2023-03-21T03:05:24;8.80;99.90
29725;DHT22;16636;48.394;15.468;2023-03-21T03:10:25;8.70;99.90
29725;DHT22;16636;48.394;15.468;2023-03-21T03:20:34;8.70;99.90
29725;DHT22;16636;48.394;15.468;2023-03-21T03:23:10;8.70;99.90
29725;DHT22;16636;48.394;15.468;2023-03-21T03:25:48;8.60;99.90
29725;DHT22;16636;48.394;15.468;2023-03-21T03:28:18;8.60;99.90
29725;DHT22;16636;48.394;15.468;2023-03-21T03:30:46;8.70;99.90
29725;DHT22;16636;48.394;15.468;2023-03-21T03:33:14;8.70;99.90
29725;DHT22;16636;48.394;15.468;2023-03-21T03:35:42;8.60;99.90
29725;DHT22;16636;48.394;15.468;2023-03-21T03:38:09;8.60;99.90
29725;DHT22;16636;48.394;15.468;2023-03-21T03:40:38;8.60;99.90
29725;DHT22;16636;48.394;15.468;2023-03-21T03:43:27;8.50;99.90
29725;DHT22;16636;48.394;15.468;2023-03-21T03:45:59;8.40;99.90
29725;DHT22;16636;48.394;15.468;2023-03-21T03:48:28;8.40;99.90
29725;DHT22;16636;48.394;15.468;2023-03-21T03:51:02;8.40;99.90
29725;DHT22;16636;48.394;15.468;2023-03-21T03:54:05;8.40;99.90
29725;DHT22;16636;48.394;15.468;2023-03-21T03:56:33;8.40;99.90
29725;DHT22;16636;48.394;15.468;2023-03-21T03:59:01;8.40;99.90
29725;DHT22;16636;48.394;15.468;2023-03-21T04:01:47;8.40;99.90
29725;DHT22;16636;48.394;15.468;2023-03-21T04:04:13;8.40;99.90
29725;DHT22;16636;48.394;15.468;2023-03-21T04:06:43;8.40;99.90
29725;DHT22;16636;48.394;15.468;2023-03-21T04:09:10;8.40;99.90
29725;DHT22;16636;48.394;15.468;2023-03-21T04:11:37;8.40;99.90
29725;DHT22;16636;48.394;15.468;2023-03-21T04:14:03;8.40;99.90
29725;DHT22;16636;48.394;15.468;2023-03-21T04:16:28;8.40;99.90
29725;DHT22;16636;48.394;15.468;2023-03-21T04:18:56;8.40;99.90
29725;DHT22;16636;48.394;15.468;2023-03-21T04:21:22;8.40;99.90
29725;DHT22;16636;48.394;15.468;2023-03-21T04:23:48;8.50;99.90
29725;DHT22;16636;48.394;15.468;2023-03-21T04:26:14;8.50;99.90
29725;DHT22;16636;48.394;15.468;2023-03-21T04:29:03;8.50;99.90
29725;DHT22;16636;48.394;15.468;2023-03-21T04:31:48;8.40;99.90
29725;DHT22;16636;48.394;15.468;2023-03-21T04:34:15;8.50;99.90
29725;DHT22;16636;48.394;15.468;2023-03-21T04:36:46;8.50;99.90
29725;DHT22;16636;48.394;15.468;2023-03-21T04:39:13;8.40;99.90
29725;DHT22;16636;48.394;15.468;2023-03-21T04:41:41;8.40;99.90
29725;DHT22;16636;48.394;15.468;2023-03-21T04:44:09;8.50;99.90
29725;DHT22;16636;48.394;15.468;2023-03-21T04:46:36;8.50;99.90
29725;DHT22;16636;48.394;15.468;2023-03-21T04:49:03;8.50;99.90
29725;DHT22;16636;48.394;15.468;2023-03-21T04:51:29;8.50;99.90
29725;DHT22;16636;48.394;15.468;2023-03-21T04:53:55;8.50;99.90
29725;DHT22;16636;48.394;15.468;2023-03-21T04:56:24;8.50;99.90
29725;DHT22;16636;48.394;15.468;2023-03-21T04:58:57;8.50;99.90
29725;DHT22;16636;48.394;15.468;2023-03-21T05:01:24;8.50;99.90
29725;DHT22;16636;48.394;15.468;2023-03-21T05:03:50;8.50;99.90
29725;DHT22;16636;48.394;15.468;2023-03-21T05:06:16;8.50;99.90
29725;DHT22;16636;48.394;15.468;2023-03-21T05:08:42;8.50;99.90
29725;DHT22;16636;48.394;15.468;2023-03-21T05:11:10;8.50;99.90
29725;DHT22;16636;48.394;15.468;2023-03-21T05:13:36;8.50;99.90
29725;DHT22;16636;48.394;15.468;2023-03-21T05:16:02;8.50;99.90
29725;DHT22;16636;48.394;15.468;2023-03-21T05:18:28;8.50;99.90
29725;DHT22;16636;48.394;15.468;2023-03-21T05:21:05;8.50;99.90
29725;DHT22;16636;48.394;15.468;2023-03-21T05:23:36;8.50;99.90
29725;DHT22;16636;48.394;15.468;2023-03-21T05:26:07;8.50;99.90
29725;DHT22;16636;48.394;15.468;2023-03-21T05:28:41;8.50;99.90
29725;DHT22;16636;48.394;15.468;2023-03-21T05:31:07;8.50;99.90
29725;DHT22;16636;48.394;15.468;2023-03-21T05:33:33;8.50;99.90
29725;DHT22;16636;48.394;15.468;2023-03-21T05:35:59;8.40;99.90
29725;DHT22;16636;48.394;15.468;2023-03-21T05:38:29;8.50;99.90
29725;DHT22;16636;48.394;15.468;2023-03-21T05:40:55;8.40;99.90
29725;DHT22;16636;48.394;15.468;2023-03-21T05:43:23;8.50;99.90
29725;DHT22;16636;48.394;15.468;2023-03-21T05:45:50;8.50;99.90
29725;DHT22;16636;48.394;15.468;2023-03-21T05:48:17;8.50;99.90
29725;DHT22;16636;48.394;15.468;2023-03-21T05:50:58;8.50;99.90
29725;DHT22;16636;48.394;15.468;2023-03-21T05:53:24;8.50;99.90
29725;DHT22;16636;48.394;15.468;2023-03-21T05:55:50;8.50;99.90
29725;DHT22;16636;48.394;15.468;2023-03-21T05:58:34;8.50;99.90
29725;DHT22;16636;48.394;15.468;2023-03-21T06:01:00;8.60;99.90
29725;DHT22;16636;48.394;15.468;2023-03-21T06:03:31;8.50;99.90
29725;DHT22;16636;48.394;15.468;2023-03-21T06:06:01;8.60;99.90
29725;DHT22;16636;48.394;15.468;2023-03-21T06:08:34;8.60;99.90
29725;DHT22;16636;48.394;15.468;2023-03-21T06:11:00;8.60;99.90
29725;DHT22;16636;48.394;15.468;2023-03-21T06:13:27;8.60;99.90
29725;DHT22;16636;48.394;15.468;2023-03-21T06:15:53;8.70;99.90
29725;DHT22;16636;48.394;15.468;2023-03-21T06:18:23;8.70;99.90
29725;DHT22;16636;48.394;15.468;2023-03-21T06:21:12;8.70;99.90
29725;DHT22;16636;48.394;15.468;2023-03-21T06:23:39;8.70;99.90
29725;DHT22;16636;48.394;15.468;2023-03-21T06:26:05;8.70;99.90
29725;DHT22;16636;48.394;15.468;2023-03-21T06:28:31;8.70;99.90
29725;DHT22;16636;48.394;15.468;2023-03-21T06:30:57;8.60;99.90
29725;DHT22;16636;48.394;15.468;2023-03-21T06:33:26;8.60;99.90
29725;DHT22;16636;48.394;15.468;2023-03-21T06:35:55;8.70;99.90
29725;DHT22;16636;48.394;15.468;2023-03-21T06:38:22;8.70;99.90
29725;DHT22;16636;48.394;15.468;2023-03-21T06:40:49;8.70;99.90
29725;DHT22;16636;48.394;15.468;2023-03-21T06:43:16;8.70;99.90
29725;DHT22;16636;48.394;15.468;2023-03-21T06:45:43;8.80;99.90
29725;DHT22;16636;48.394;15.468;2023-03-21T06:48:10;8.80;99.90
29725;DHT22;16636;48.394;15.468;2023-03-21T06:50:43;8.90;99.90
29725;DHT22;16636;48.394;15.468;2023-03-21T06:53:10;8.90;99.90
29725;DHT22;16636;48.394;15.468;2023-03-21T06:55:55;9.00;99.90
29725;DHT22;16636;48.394;15.468;2023-03-21T06:58:21;9.00;99.90
29725;DHT22;16636;48.394;15.468;2023-03-21T07:00:47;9.00;99.90
29725;DHT22;16636;48.394;15.468;2023-03-21T07:03:20;9.00;99.90
29725;DHT22;16636;48.394;15.468;2023-03-21T07:06:06;9.00;99.90
29725;DHT22;16636;48.394;15.468;2023-03-21T07:08:33;9.10;99.90
29725;DHT22;16636;48.394;15.468;2023-03-21T07:10:59;9.10;99.90
29725;DHT22;16636;48.394;15.468;2023-03-21T07:13:25;9.10;99.90
29725;DHT22;16636;48.394;15.468;2023-03-21T07:15:54;9.10;99.90
29725;DHT22;16636;48.394;15.468;2023-03-21T07:18:20;9.10;99.90
29725;DHT22;16636;48.394;15.468;2023-03-21T07:20:47;9.10;99.90
29725;DHT22;16636;48.394;15.468;2023-03-21T07:23:16;9.10;99.90
29725;DHT22;16636;48.394;15.468;2023-03-21T07:25:42;9.10;99.90
29725;DHT22;16636;48.394;15.468;2023-03-21T07:28:09;9.10;99.90
29725;DHT22;16636;48.394;15.468;2023-03-21T07:30:34;9.20;99.90
29725;DHT22;16636;48.394;15.468;2023-03-21T07:33:01;9.20;99.90
29725;DHT22;16636;48.394;15.468;2023-03-21T07:35:27;9.20;99.90
29725;DHT22;16636;48.394;15.468;2023-03-21T07:37:53;9.20;99.90
29725;DHT22;16636;48.394;15.468;2023-03-21T07:40:19;9.20;99.90
29725;DHT22;16636;48.394;15.468;2023-03-21T07:42:47;9.20;99.90
29725;DHT22;16636;48.394;15.468;2023-03-21T07:45:19;9.30;99.90
29725;DHT22;16636;48.394;15.468;2023-03-21T07:47:49;9.30;99.90
29725;DHT22;16636;48.394;15.468;2023-03-21T07:50:24;9.30;99.90
29725;DHT22;16636;48.394;15.468;2023-03-21T07:52:50;9.30;99.90
29725;DHT22;16636;48.394;15.468;2023-03-21T07:55:16;9.40;99.90
29725;DHT22;16636;48.394;15.468;2023-03-21T07:57:42;9.40;99.90
29725;DHT22;16636;48.394;15.468;2023-03-21T08:00:08;9.40;99.90
29725;DHT22;16636;48.394;15.468;2023-03-21T08:02:40;9.50;99.90
29725;DHT22;16636;48.394;15.468;2023-03-21T08:05:07;9.50;99.90
29725;DHT22;16636;48.394;15.468;2023-03-21T08:07:36;9.50;99.90
29725;DHT22;16636;48.394;15.468;2023-03-21T08:10:02;9.60;99.90
29725;DHT22;16636;48.394;15.468;2023-03-21T08:12:28;9.60;99.90
29725;DHT22;16636;48.394;15.468;2023-03-21T08:14:53;9.60;99.90
29725;DHT22;16636;48.394;15.468;2023-03-21T08:17:19;9.70;99.90
29725;DHT22;16636;48.394;15.468;2023-03-21T08:19:45;9.70;99.90
29725;DHT22;16636;48.394;15.468;2023-03-21T08:22:11;9.70;99.90
29725;DHT22;16636;48.394;15.468;2023-03-21T08:24:37;9.80;99.90
29725;DHT22;16636;48.394;15.468;2023-03-21T08:27:03;9.80;99.90
29725;DHT22;16636;48.394;15.468;2023-03-21T08:29:29;10.00;99.90
29725;DHT22;16636;48.394;15.468;2023-03-21T08:31:54;10.10;99.90
29725;DHT22;16636;48.394;15.468;2023-03-21T08:34:20;10.30;99.90
29725;DHT22;16636;48.394;15.468;2023-03-21T08:36:47;10.40;99.90
29725;DHT22;16636;48.394;15.468;2023-03-21T08:39:13;10.50;99.90
29725;DHT22;16636;48.394;15.468;2023-03-21T08:41:39;10.50;99.90
29725;DHT22;16636;48.394;15.468;2023-03-21T08:44:05;10.50;99.90
29725;DHT22;16636;48.394;15.468;2023-03-21T08:46:31;10.50;99.90
29725;DHT22;16636;48.394;15.468;2023-03-21T08:48:57;10.50;99.90
29725;DHT22;16636;48.394;15.468;2023-03-21T08:51:23;10.50;99.90
29725;DHT22;16636;48.394;15.468;2023-03-21T08:53:50;10.40;99.90
29725;DHT22;16636;48.394;15.468;2023-03-21T08:56:16;10.40;99.90
29725;DHT22;16636;48.394;15.468;2023-03-21T08:58:42;10.40;99.90
29725;DHT22;16636;48.394;15.468;2023-03-21T09:01:09;10.30;99.90
29725;DHT22;16636;48.394;15.468;2023-03-21T09:03:40;10.30;99.90
29725;DHT22;16636;48.394;15.468;2023-03-21T09:06:06;10.30;99.90
29725;DHT22;16636;48.394;15.468;2023-03-21T09:08:36;10.40;99.90
29725;DHT22;16636;48.394;15.468;2023-03-21T09:11:02;10.40;99.90
29725;DHT22;16636;48.394;15.468;2023-03-21T09:13:28;10.40;99.90
29725;DHT22;16636;48.394;15.468;2023-03-21T09:15:54;10.40;99.90
29725;DHT22;16636;48.394;15.468;2023-03-21T09:18:22;10.50;99.90
29725;DHT22;16636;48.394;15.468;2023-03-21T09:21:06;10.40;99.90
29725;DHT22;16636;48.394;15.468;2023-03-21T09:23:37;10.50;99.90
29725;DHT22;16636;48.394;15.468;2023-03-21T09:26:04;10.50;99.90
29725;DHT22;16636;48.394;15.468;2023-03-21T09:28:30;10.60;99.90
29725;DHT22;16636;48.394;15.468;2023-03-21T09:30:59;10.60;99.90
29725;DHT22;16636;48.394;15.468;2023-03-21T09:33:26;10.60;99.90
29725;DHT22;16636;48.394;15.468;2023-03-21T09:35:54;10.70;99.90
29725;DHT22;16636;48.394;15.468;2023-03-21T09:38:20;10.70;99.90
29725;DHT22;16636;48.394;15.468;2023-03-21T09:45:56;10.80;99.90
29725;DHT22;16636;48.394;15.468;2023-03-21T09:48:45;10.80;99.90
29725;DHT22;16636;48.394;15.468;2023-03-21T09:51:15;10.80;99.90
29725;DHT22;16636;48.394;15.468;2023-03-21T09:53:43;10.90;99.90
29725;DHT22;16636;48.394;15.468;2023-03-21T09:56:11;10.90;99.90
29725;DHT22;16636;48.394;15.468;2023-03-21T09:58:42;10.90;99.90
29725;DHT22;16636;48.394;15.468;2023-03-21T10:01:29;10.90;99.90
29725;DHT22;16636;48.394;15.468;2023-03-21T10:03:59;10.90;99.90
29725;DHT22;16636;48.394;15.468;2023-03-21T10:06:26;10.90;99.90
29725;DHT22;16636;48.394;15.468;2023-03-21T10:08:56;11.00;99.90
29725;DHT22;16636;48.394;15.468;2023-03-21T10:11:24;11.00;99.90
29725;DHT22;16636;48.394;15.468;2023-03-21T10:14:00;11.00;99.90
29725;DHT22;16636;48.394;15.468;2023-03-21T10:16:29;11.10;99.90
29725;DHT22;16636;48.394;15.468;2023-03-21T10:18:58;11.10;99.90
29725;DHT22;16636;48.394;15.468;2023-03-21T10:21:26;11.20;99.90
29725;DHT22;16636;48.394;15.468;2023-03-21T10:23:53;11.20;99.90
29725;DHT22;16636;48.394;15.468;2023-03-21T10:26:20;11.30;99.90
29725;DHT22;16636;48.394;15.468;2023-03-21T10:28:47;11.40;99.90
29725;DHT22;16636;48.394;15.468;2023-03-21T10:31:14;11.50;99.90
29725;DHT22;16636;48.394;15.468;2023-03-21T10:33:42;11.70;99.90
29725;DHT22;16636;48.394;15.468;2023-03-21T10:36:30;12.30;99.90
29725;DHT22;16636;48.394;15.468;2023-03-21T10:38:59;12.40;99.90
29725;DHT22;16636;48.394;15.468;2023-03-21T10:41:26;12.40;99.90
29725;DHT22;16636;48.394;15.468;2023-03-21T10:44:06;12.30;99.90
29725;DHT22;16636;48.394;15.468;2023-03-21T10:46:32;12.20;99.90
29725;DHT22;16636;48.394;15.468;2023-03-21T10:48:59;12.00;99.90
29725;DHT22;16636;48.394;15.468;2023-03-21T10:51:26;12.00;99.90
29725;DHT22;16636;48.394;15.468;2023-03-21T10:53:54;12.00;99.90
29725;DHT22;16636;48.394;15.468;2023-03-21T10:56:27;12.00;99.90
29725;DHT22;16636;48.394;15.468;2023-03-21T10:58:54;12.10;99.90
29725;DHT22;16636;48.394;15.468;2023-03-21T11:04:05;12.10;99.90
29725;DHT22;16636;48.394;15.468;2023-03-21T11:06:33;12.10;99.90
29725;DHT22;16636;48.394;15.468;2023-03-21T11:09:11;12.10;99.90
29725;DHT22;16636;48.394;15.468;2023-03-21T11:11:40;12.20;99.90
29725;DHT22;16636;48.394;15.468;2023-03-21T11:14:07;12.30;99.90
29725;DHT22;16636;48.394;15.468;2023-03-21T11:16:44;12.40;99.90
29725;DHT22;16636;48.394;15.468;2023-03-21T11:19:18;12.60;99.90
29725;DHT22;16636;48.394;15.468;2023-03-21T11:21:44;12.70;99.90
29725;DHT22;16636;48.394;15.468;2023-03-21T11:24:14;12.80;99.90
29725;DHT22;16636;48.394;15.468;2023-03-21T11:26:41;12.90;99.90
29725;DHT22;16636;48.394;15.468;2023-03-21T11:31:40;13.20;99.90
29725;DHT22;16636;48.394;15.468;2023-03-21T11:34:06;13.40;99.90
29725;DHT22;16636;48.394;15.468;2023-03-21T11:36:36;13.60;99.90
29725;DHT22;16636;48.394;15.468;2023-03-21T11:41:35;13.60;99.90
29725;DHT22;16636;48.394;15.468;2023-03-21T11:44:04;13.60;99.90
29725;DHT22;16636;48.394;15.468;2023-03-21T11:46:31;13.50;99.90
29725;DHT22;16636;48.394;15.468;2023-03-21T11:48:58;13.60;99.90
29725;DHT22;16636;48.394;15.468;2023-03-21T11:51:36;13.60;99.90
29725;DHT22;16636;48.394;15.468;2023-03-21T11:56:39;13.40;99.90
29725;DHT22;16636;48.394;15.468;2023-03-21T12:09:53;13.60;99.90
29725;DHT22;16636;48.394;15.468;2023-03-21T12:15:08;13.60;99.90
29725;DHT22;16636;48.394;15.468;2023-03-21T12:25:49;14.00;99.90
29725;DHT22;16636;48.394;15.468;2023-03-21T12:39:13;14.70;99.90
29725;DHT22;16636;48.394;15.468;2023-03-21T12:44:09;15.40;99.90
29725;DHT22;16636;48.394;15.468;2023-03-21T12:49:02;16.10;99.90
29725;DHT22;16636;48.394;15.468;2023-03-21T12:51:35;16.30;99.90
29725;DHT22;16636;48.394;15.468;2023-03-21T12:54:06;16.40;99.90
29725;DHT22;16636;48.394;15.468;2023-03-21T12:56:38;16.50;99.90
29725;DHT22;16636;48.394;15.468;2023-03-21T12:59:17;16.70;99.90
29725;DHT22;16636;48.394;15.468;2023-03-21T13:01:45;16.60;99.90
29725;DHT22;16636;48.394;15.468;2023-03-21T13:06:41;16.30;99.90
29725;DHT22;16636;48.394;15.468;2023-03-21T13:09:15;16.10;99.90
29725;DHT22;16636;48.394;15.468;2023-03-21T13:11:43;16.00;99.90
29725;DHT22;16636;48.394;15.468;2023-03-21T13:14:11;15.80;99.90
29725;DHT22;16636;48.394;15.468;2023-03-21T13:16:40;15.90;99.90
29725;DHT22;16636;48.394;15.468;2023-03-21T13:26:44;16.50;99.90
29725;DHT22;16636;48.394;15.468;2023-03-21T13:29:12;16.70;99.90
29725;DHT22;16636;48.394;15.468;2023-03-21T13:31:42;16.90;99.90
29725;DHT22;16636;48.394;15.468;2023-03-21T13:34:08;17.20;99.90
29725;DHT22;16636;48.394;15.468;2023-03-21T13:36:34;17.40;99.90
29725;DHT22;16636;48.394;15.468;2023-03-21T13:39:03;17.40;99.90
29725;DHT22;16636;48.394;15.468;2023-03-21T13:41:41;17.00;99.90
29725;DHT22;16636;48.394;15.468;2023-03-21T13:44:15;16.70;99.90
29725;DHT22;16636;48.394;15.468;2023-03-21T13:46:54;16.90;99.90
29725;DHT22;16636;48.394;15.468;2023-03-21T13:49:25;17.20;99.90
29725;DHT22;16636;48.394;15.468;2023-03-21T13:51:52;17.30;99.90
29725;DHT22;16636;48.394;15.468;2023-03-21T13:54:26;17.00;99.90
29725;DHT22;16636;48.394;15.468;2023-03-21T13:56:58;16.60;99.90
29725;DHT22;16636;48.394;15.468;2023-03-21T14:04:29;16.60;99.90
29725;DHT22;16636;48.394;15.468;2023-03-21T14:07:00;16.70;99.90
29725;DHT22;16636;48.394;15.468;2023-03-21T14:09:37;16.80;99.90
29725;DHT22;16636;48.394;15.468;2023-03-21T14:12:05;16.50;99.90
29725;DHT22;16636;48.394;15.468;2023-03-21T14:14:39;16.30;99.90
29725;DHT22;16636;48.394;15.468;2023-03-21T14:17:13;16.20;99.90
29725;DHT22;16636;48.394;15.468;2023-03-21T14:19:39;16.10;99.90
29725;DHT22;16636;48.394;15.468;2023-03-21T14:22:09;16.20;99.90
29725;DHT22;16636;48.394;15.468;2023-03-21T14:24:36;16.20;99.90
29725;DHT22;16636;48.394;15.468;2023-03-21T14:27:01;16.30;99.90
29725;DHT22;16636;48.394;15.468;2023-03-21T14:29:30;16.20;99.90
29725;DHT22;16636;48.394;15.468;2023-03-21T14:31:58;16.50;99.90
29725;DHT22;16636;48.394;15.468;2023-03-21T14:34:25;16.70;99.90
29725;DHT22;16636;48.394;15.468;2023-03-21T14:36:51;16.60;99.90
29725;DHT22;16636;48.394;15.468;2023-03-21T14:39:21;16.40;99.90
29725;DHT22;16636;48.394;15.468;2023-03-21T14:41:51;16.20;99.90
29725;DHT22;16636;48.394;15.468;2023-03-21T14:44:19;16.10;99.90
29725;DHT22;16636;48.394;15.468;2023-03-21T14:49:26;16.00;99.90
29725;DHT22;16636;48.394;15.468;2023-03-21T14:51:53;16.20;99.90
29725;DHT22;16636;48.394;15.468;2023-03-21T14:54:19;16.10;99.90
29725;DHT22;16636;48.394;15.468;2023-03-21T14:56:47;16.10;99.90
29725;DHT22;16636;48.394;15.468;2023-03-21T14:59:15;16.20;99.90
29725;DHT22;16636;48.394;15.468;2023-03-21T15:01:41;16.20;99.90
29725;DHT22;16636;48.394;15.468;2023-03-21T15:04:10;16.20;99.90
29725;DHT22;16636;48.394;15.468;2023-03-21T15:06:47;16.10;99.90
29725;DHT22;16636;48.394;15.468;2023-03-21T15:09:15;16.00;99.90
29725;DHT22;16636;48.394;15.468;2023-03-21T15:11:47;15.90;99.90
29725;DHT22;16636;48.394;15.468;2023-03-21T15:14:13;15.90;99.90
29725;DHT22;16636;48.394;15.468;2023-03-21T15:16:40;15.80;99.90
29725;DHT22;16636;48.394;15.468;2023-03-21T15:19:06;15.90;99.90
29725;DHT22;16636;48.394;15.468;2023-03-21T15:21:38;15.90;99.90
29725;DHT22;16636;48.394;15.468;2023-03-21T15:24:05;15.80;99.90
29725;DHT22;16636;48.394;15.468;2023-03-21T15:26:38;15.90;99.90
29725;DHT22;16636;48.394;15.468;2023-03-21T15:29:04;15.80;99.90
29725;DHT22;16636;48.394;15.468;2023-03-21T15:31:33;15.80;99.90
29725;DHT22;16636;48.394;15.468;2023-03-21T15:34:00;15.70;99.90
29725;DHT22;16636;48.394;15.468;2023-03-21T15:36:27;15.70;99.90
29725;DHT22;16636;48.394;15.468;2023-03-21T15:38:54;15.70;99.90
29725;DHT22;16636;48.394;15.468;2023-03-21T15:51:37;15.80;99.90
29725;DHT22;16636;48.394;15.468;2023-03-21T15:54:03;15.70;99.90
29725;DHT22;16636;48.394;15.468;2023-03-21T15:56:32;15.80;99.90
29725;DHT22;16636;48.394;15.468;2023-03-21T15:59:00;15.70;99.90
29725;DHT22;16636;48.394;15.468;2023-03-21T16:01:26;15.70;99.90
29725;DHT22;16636;48.394;15.468;2023-03-21T16:03:55;15.70;99.90
29725;DHT22;16636;48.394;15.468;2023-03-21T16:06:22;15.60;99.90
29725;DHT22;16636;48.394;15.468;2023-03-21T16:11:43;15.50;99.90
29725;DHT22;16636;48.394;15.468;2023-03-21T16:14:14;15.50;99.90
29725;DHT22;16636;48.394;15.468;2023-03-21T16:16:42;15.40;99.90
29725;DHT22;16636;48.394;15.468;2023-03-21T16:19:07;15.40;99.90
29725;DHT22;16636;48.394;15.468;2023-03-21T16:21:33;15.30;99.90
29725;DHT22;16636;48.394;15.468;2023-03-21T16:24:02;15.30;99.90
29725;DHT22;16636;48.394;15.468;2023-03-21T16:26:29;15.20;99.90
29725;DHT22;16636;48.394;15.468;2023-03-21T16:28:55;15.20;99.90
29725;DHT22;16636;48.394;15.468;2023-03-21T16:31:23;15.20;99.90
29725;DHT22;16636;48.394;15.468;2023-03-21T16:33:49;15.10;99.90
29725;DHT22;16636;48.394;15.468;2023-03-21T16:38:50;14.90;99.90
29725;DHT22;16636;48.394;15.468;2023-03-21T16:41:20;14.80;99.90
29725;DHT22;16636;48.394;15.468;2023-03-21T16:43:46;14.70;99.90
29725;DHT22;16636;48.394;15.468;2023-03-21T16:46:20;14.70;99.90
29725;DHT22;16636;48.394;15.468;2023-03-21T16:48:47;14.60;99.90
29725;DHT22;16636;48.394;15.468;2023-03-21T16:51:14;14.50;99.90
29725;DHT22;16636;48.394;15.468;2023-03-21T16:53:40;14.40;99.90
29725;DHT22;16636;48.394;15.468;2023-03-21T16:56:13;14.30;99.90
29725;DHT22;16636;48.394;15.468;2023-03-21T16:58:39;14.20;99.90
29725;DHT22;16636;48.394;15.468;2023-03-21T17:01:05;14.20;99.90
29725;DHT22;16636;48.394;15.468;2023-03-21T17:03:33;14.10;99.90
29725;DHT22;16636;48.394;15.468;2023-03-21T17:05:58;14.10;99.90
29725;DHT22;16636;48.394;15.468;2023-03-21T17:08:25;14.00;99.90
29725;DHT22;16636;48.394;15.468;2023-03-21T17:10:52;13.90;99.90
29725;DHT22;16636;48.394;15.468;2023-03-21T17:13:18;13.90;99.90
29725;DHT22;16636;48.394;15.468;2023-03-21T17:15:44;13.80;99.90
29725;DHT22;16636;48.394;15.468;2023-03-21T17:18:10;13.80;99.90
29725;DHT22;16636;48.394;15.468;2023-03-21T17:20:36;13.70;99.90
29725;DHT22;16636;48.394;15.468;2023-03-21T17:23:04;13.70;99.90
29725;DHT22;16636;48.394;15.468;2023-03-21T17:25:30;13.60;99.90
29725;DHT22;16636;48.394;15.468;2023-03-21T17:27:56;13.50;99.90
29725;DHT22;16636;48.394;15.468;2023-03-21T17:30:29;13.50;99.90
29725;DHT22;16636;48.394;15.468;2023-03-21T17:32:55;13.40;99.90
29725;DHT22;16636;48.394;15.468;2023-03-21T17:35:21;13.30;99.90